Time;durP1;ratioP1;P1;durP2;ratioP2;P2;SDS_P1;SDS_P2;PMS_P1;PMS_P2;Temp;Humidity;BMP_temperature;BMP_pressure;BME280_temperature;BME280_humidity;BME280_pressure;Samples;Min_cycle;Max_cycle;Signal;HPM_P1;HPM_P2
2022/03/02 00:01:50;;;;;;;52.13;18.02;;;;;;;;;;4970637;28;20021;-62
2022/03/02 00:04:16;;;;;;;36.80;14.13;;;;;;;;;;4970599;28;20037;-62
2022/03/02 00:06:41;;;;;;;38.22;13.85;;;;;;;;;;4970631;28;20051;-62
2022/03/02 00:09:06;;;;;;;37.75;14.38;;;;;;;;;;4971226;28;20321;-62
2022/03/02 00:11:32;;;;;;;38.53;14.70;;;;;;;;;;4969867;28;20478;-62
2022/03/02 00:14:02;;;;;;;43.45;13.77;;;;;;;;;;4970020;28;20508;-62
2022/03/02 00:16:28;;;;;;;42.08;14.70;;;;;;;;;;4970477;28;20515;-63
2022/03/02 00:18:54;;;;;;;44.45;16.48;;;;;;;;;;4970397;28;20452;-62
2022/03/02 00:21:20;;;;;;;40.53;15.55;;;;;;;;;;4971130;28;20456;-62
2022/03/02 00:23:45;;;;;;;46.67;15.23;;;;;;;;;;4971336;28;20306;-62
2022/03/02 00:26:10;;;;;;;35.65;14.40;;;;;;;;;;4970165;28;20349;-62
2022/03/02 00:28:36;;;;;;;31.13;13.63;;;;;;;;;;4970694;28;20354;-62
2022/03/02 00:31:01;;;;;;;33.00;13.23;;;;;;;;;;4971672;28;20391;-62
2022/03/02 00:33:26;;;;;;;38.60;14.15;;;;;;;;;;4970079;28;20344;-63
2022/03/02 00:35:52;;;;;;;37.63;14.05;;;;;;;;;;4970320;28;20021;-62
2022/03/02 00:38:17;;;;;;;33.05;13.65;;;;;;;;;;4969599;28;20441;-62
2022/03/02 00:40:43;;;;;;;36.80;13.02;;;;;;;;;;4970035;28;20341;-61
2022/03/02 00:43:09;;;;;;;37.75;12.98;;;;;;;;;;4969619;28;20550;-62
2022/03/02 00:45:35;;;;;;;35.42;13.73;;;;;;;;;;4970571;28;20324;-61
2022/03/02 00:48:02;;;;;;;32.90;13.05;;;;;;;;;;4969755;28;20052;-62
2022/03/02 00:50:28;;;;;;;40.92;13.60;;;;;;;;;;4969636;28;20357;-64
2022/03/02 00:52:54;;;;;;;36.15;13.00;;;;;;;;;;4970299;28;20498;-62
2022/03/02 00:55:19;;;;;;;35.45;13.43;;;;;;;;;;4970088;28;20479;-62
2022/03/02 00:57:45;;;;;;;41.25;12.90;;;;;;;;;;4969551;28;20535;-62
2022/03/02 01:00:11;;;;;;;37.03;13.57;;;;;;;;;;4971657;28;20368;-62
2022/03/02 01:02:37;;;;;;;31.95;11.73;;;;;;;;;;4978686;28;20306;-64
2022/03/02 01:05:03;;;;;;;30.00;12.05;;;;;;;;;;4969444;28;20033;-61
2022/03/02 01:07:29;;;;;;;36.97;11.68;;;;;;;;;;4969643;28;20417;-62
2022/03/02 01:09:54;;;;;;;34.15;13.95;;;;;;;;;;4969461;28;20295;-62
2022/03/02 01:12:20;;;;;;;32.65;12.80;;;;;;;;;;4969507;28;20365;-62
2022/03/02 01:14:45;;;;;;;30.23;12.05;;;;;;;;;;4969119;28;20060;-61
2022/03/02 01:17:10;;;;;;;33.38;11.00;;;;;;;;;;4969482;28;20522;-62
2022/03/02 01:19:37;;;;;;;29.05;12.52;;;;;;;;;;4970002;28;20437;-62
2022/03/02 01:22:02;;;;;;;27.40;12.38;;;;;;;;;;4969205;28;20384;-62
2022/03/02 01:24:27;;;;;;;36.78;13.15;;;;;;;;;;4969141;28;20392;-62
2022/03/02 01:26:53;;;;;;;34.85;12.18;;;;;;;;;;4969310;28;20429;-62
2022/03/02 01:29:18;;;;;;;34.63;12.50;;;;;;;;;;4969137;28;20396;-63
2022/03/02 01:31:44;;;;;;;28.42;11.38;;;;;;;;;;4968867;28;20460;-61
2022/03/02 01:34:09;;;;;;;33.38;12.07;;;;;;;;;;4969288;28;20520;-62
2022/03/02 01:36:34;;;;;;;30.23;11.98;;;;;;;;;;4968915;28;20368;-62
2022/03/02 01:39:00;;;;;;;31.67;12.63;;;;;;;;;;4969454;28;20504;-62
2022/03/02 01:41:26;;;;;;;32.15;12.70;;;;;;;;;;4968644;28;20041;-62
2022/03/02 01:43:53;;;;;;;32.45;12.80;;;;;;;;;;4969259;28;20108;-62
2022/03/02 01:46:18;;;;;;;31.98;11.48;;;;;;;;;;4967519;28;20349;-61
2022/03/02 01:48:44;;;;;;;33.83;11.85;;;;;;;;;;4969248;28;20376;-62
2022/03/02 01:51:10;;;;;;;39.28;11.15;;;;;;;;;;4951761;28;20452;-62
2022/03/02 01:53:35;;;;;;;34.67;12.68;;;;;;;;;;4969134;28;20518;-62
2022/03/02 01:56:01;;;;;;;39.58;14.00;;;;;;;;;;4969680;28;20043;-62
2022/03/02 01:58:27;;;;;;;32.38;12.02;;;;;;;;;;4969514;28;20333;-62
2022/03/02 02:00:53;;;;;;;34.20;12.90;;;;;;;;;;4969623;28;20504;-62
2022/03/02 02:03:19;;;;;;;30.83;12.40;;;;;;;;;;4951124;28;20364;-62
2022/03/02 02:05:44;;;;;;;35.83;13.45;;;;;;;;;;4968840;28;20444;-62
2022/03/02 02:08:09;;;;;;;33.55;13.23;;;;;;;;;;4968712;28;20421;-62
2022/03/02 02:10:35;;;;;;;40.75;13.10;;;;;;;;;;4968716;28;20434;-62
2022/03/02 02:13:00;;;;;;;34.53;11.85;;;;;;;;;;4968437;28;20538;-62
2022/03/02 02:15:26;;;;;;;34.15;13.57;;;;;;;;;;4968695;28;20425;-62
2022/03/02 02:17:51;;;;;;;39.20;14.48;;;;;;;;;;4970797;28;20523;-62
2022/03/02 02:20:16;;;;;;;32.50;12.70;;;;;;;;;;4968722;28;20437;-61
2022/03/02 02:22:44;;;;;;;37.75;12.25;;;;;;;;;;4970062;28;20359;-61
2022/03/02 02:25:11;;;;;;;27.55;12.23;;;;;;;;;;4969047;28;20337;-61
2022/03/02 02:27:37;;;;;;;32.63;11.32;;;;;;;;;;4968904;28;20437;-61
2022/03/02 02:30:03;;;;;;;33.72;12.80;;;;;;;;;;4950991;28;20099;-61
2022/03/02 02:32:29;;;;;;;31.10;12.18;;;;;;;;;;4968926;28;20440;-62
2022/03/02 02:34:55;;;;;;;35.30;12.32;;;;;;;;;;4969980;28;20428;-61
2022/03/02 02:37:20;;;;;;;28.90;12.20;;;;;;;;;;4972065;28;20352;-61
2022/03/02 02:39:54;;;;;;;37.38;12.52;;;;;;;;;;4954812;28;20368;-62
2022/03/02 02:42:19;;;;;;;34.53;12.15;;;;;;;;;;4971759;28;20445;-63
2022/03/02 02:44:44;;;;;;;30.75;13.63;;;;;;;;;;4973893;28;20440;-61
2022/03/02 02:47:11;;;;;;;31.02;12.27;;;;;;;;;;4971870;28;20337;-61
2022/03/02 02:49:37;;;;;;;31.52;11.13;;;;;;;;;;4972210;28;20444;-61
2022/03/02 02:52:03;;;;;;;35.08;13.55;;;;;;;;;;4971863;28;20446;-62
2022/03/02 02:54:29;;;;;;;30.45;12.90;;;;;;;;;;4972279;28;20341;-61
2022/03/02 02:56:54;;;;;;;29.05;12.35;;;;;;;;;;4971861;28;20334;-62
2022/03/02 02:59:19;;;;;;;35.92;13.18;;;;;;;;;;4972158;28;20034;-61
2022/03/02 03:01:45;;;;;;;29.50;11.57;;;;;;;;;;4972386;28;20320;-61
2022/03/02 03:04:12;;;;;;;32.08;12.90;;;;;;;;;;4971829;28;20353;-61
2022/03/02 03:06:37;;;;;;;35.00;12.55;;;;;;;;;;4972063;28;20309;-62
2022/03/02 03:09:02;;;;;;;31.60;12.43;;;;;;;;;;4972090;28;20065;-61
2022/03/02 03:11:28;;;;;;;30.75;13.35;;;;;;;;;;4971527;28;20421;-61
2022/03/02 03:13:53;;;;;;;32.03;12.57;;;;;;;;;;4971641;28;20429;-61
2022/03/02 03:16:18;;;;;;;34.85;12.95;;;;;;;;;;4971554;28;20133;-61
2022/03/02 03:18:44;;;;;;;28.95;12.02;;;;;;;;;;4971864;28;20332;-63
2022/03/02 03:21:09;;;;;;;33.25;12.55;;;;;;;;;;4971489;28;20314;-61
2022/03/02 03:23:34;;;;;;;33.20;12.35;;;;;;;;;;4971513;28;20321;-61
2022/03/02 03:26:00;;;;;;;30.58;12.63;;;;;;;;;;4972957;28;20328;-61
2022/03/02 03:28:25;;;;;;;33.47;12.57;;;;;;;;;;4971490;28;20328;-61
2022/03/02 03:30:50;;;;;;;34.28;12.73;;;;;;;;;;4971220;28;20459;-62
2022/03/02 03:33:16;;;;;;;34.53;12.30;;;;;;;;;;4971358;28;20030;-61
2022/03/02 03:35:41;;;;;;;37.40;15.15;;;;;;;;;;4970951;28;20480;-62
2022/03/02 03:38:06;;;;;;;34.55;13.57;;;;;;;;;;4971563;28;20128;-61
2022/03/02 03:40:32;;;;;;;34.55;13.30;;;;;;;;;;4970896;28;20364;-61
2022/03/02 03:42:57;;;;;;;33.90;12.57;;;;;;;;;;4970911;28;20029;-61
2022/03/02 03:45:22;;;;;;;29.13;12.50;;;;;;;;;;4971871;28;20385;-61
2022/03/02 03:47:48;;;;;;;38.90;13.27;;;;;;;;;;4971809;28;20122;-61
2022/03/02 03:50:14;;;;;;;31.48;12.60;;;;;;;;;;4971628;28;20368;-62
2022/03/02 03:52:39;;;;;;;37.25;13.43;;;;;;;;;;4971103;28;20049;-61
2022/03/02 03:55:06;;;;;;;42.58;12.82;;;;;;;;;;4972440;28;20030;-62
2022/03/02 03:57:31;;;;;;;35.95;12.30;;;;;;;;;;4972003;28;20372;-61
2022/03/02 03:59:57;;;;;;;34.75;14.07;;;;;;;;;;4970537;28;20349;-62
2022/03/02 04:02:22;;;;;;;38.17;12.93;;;;;;;;;;4972525;28;20322;-65
2022/03/02 04:04:47;;;;;;;35.13;12.18;;;;;;;;;;4971605;28;20473;-62
2022/03/02 04:07:13;;;;;;;34.13;12.23;;;;;;;;;;4970398;28;20429;-61
2022/03/02 04:09:38;;;;;;;44.65;14.88;;;;;;;;;;4970836;28;20393;-62
2022/03/02 04:12:04;;;;;;;32.65;12.10;;;;;;;;;;4970106;28;20443;-62
2022/03/02 04:14:29;;;;;;;32.13;11.30;;;;;;;;;;4971345;28;20318;-62
2022/03/02 04:16:55;;;;;;;28.13;11.00;;;;;;;;;;4970328;28;20490;-62
2022/03/02 04:19:20;;;;;;;31.17;12.45;;;;;;;;;;4970769;28;20022;-62
2022/03/02 04:21:46;;;;;;;31.42;11.93;;;;;;;;;;4970258;28;20364;-62
2022/03/02 04:24:11;;;;;;;28.20;11.18;;;;;;;;;;4970228;28;20453;-62
2022/03/02 04:26:36;;;;;;;35.15;13.60;;;;;;;;;;4970174;28;20411;-64
2022/03/02 04:29:02;;;;;;;33.60;12.90;;;;;;;;;;4969993;28;20317;-62
2022/03/02 04:31:27;;;;;;;28.77;12.13;;;;;;;;;;4952693;28;20469;-62
2022/03/02 04:33:52;;;;;;;29.25;12.45;;;;;;;;;;4952704;28;20349;-61
2022/03/02 04:36:18;;;;;;;32.53;11.27;;;;;;;;;;4969896;28;20463;-61
2022/03/02 04:38:43;;;;;;;30.35;12.75;;;;;;;;;;4970209;28;20037;-62
2022/03/02 04:41:10;;;;;;;31.77;11.60;;;;;;;;;;4970077;28;20152;-61
2022/03/02 04:43:35;;;;;;;30.35;12.52;;;;;;;;;;4970007;28;20037;-61
2022/03/02 04:46:00;;;;;;;31.75;12.13;;;;;;;;;;4969745;28;20421;-62
2022/03/02 04:48:29;;;;;;;31.27;12.50;;;;;;;;;;4970819;28;20432;-62
2022/03/02 04:50:55;;;;;;;29.40;11.77;;;;;;;;;;4970111;28;20025;-62
2022/03/02 04:53:23;;;;;;;29.23;12.02;;;;;;;;;;4970079;28;20059;-61
2022/03/02 04:55:49;;;;;;;27.42;11.85;;;;;;;;;;4969635;28;20385;-62
2022/03/02 04:58:14;;;;;;;28.17;11.45;;;;;;;;;;4970178;28;20091;-62
2022/03/02 05:00:40;;;;;;;31.55;12.00;;;;;;;;;;4969702;28;20372;-61
2022/03/02 05:03:06;;;;;;;30.52;11.90;;;;;;;;;;4969473;28;20052;-62
2022/03/02 05:05:35;;;;;;;31.77;11.40;;;;;;;;;;4969658;28;20049;-62
2022/03/02 05:08:00;;;;;;;28.98;11.35;;;;;;;;;;4969789;28;20453;-62
2022/03/02 05:10:27;;;;;;;27.95;11.13;;;;;;;;;;4970542;28;20417;-62
2022/03/02 05:12:53;;;;;;;29.90;11.95;;;;;;;;;;4969470;28;20029;-62
2022/03/02 05:15:19;;;;;;;32.95;11.48;;;;;;;;;;4969878;28;20306;-62
2022/03/02 05:17:45;;;;;;;29.80;11.23;;;;;;;;;;4970333;28;20344;-62
2022/03/02 05:20:12;;;;;;;30.15;11.75;;;;;;;;;;4969747;28;20555;-62
2022/03/02 05:22:37;;;;;;;30.73;12.25;;;;;;;;;;4969710;28;20447;-65
2022/03/02 05:25:04;;;;;;;26.27;10.85;;;;;;;;;;4970161;28;20349;-61
2022/03/02 05:27:29;;;;;;;28.00;10.90;;;;;;;;;;4969682;28;20383;-62
2022/03/02 05:29:55;;;;;;;25.13;11.75;;;;;;;;;;4969991;28;20376;-62
2022/03/02 05:32:20;;;;;;;30.00;10.60;;;;;;;;;;4969909;28;20468;-62
2022/03/02 05:34:45;;;;;;;28.35;10.52;;;;;;;;;;4969334;28;20337;-62
2022/03/02 05:37:11;;;;;;;32.90;11.77;;;;;;;;;;4951819;28;20033;-62
2022/03/02 05:39:36;;;;;;;28.70;10.75;;;;;;;;;;4968889;28;20452;-62
2022/03/02 05:42:02;;;;;;;29.33;11.63;;;;;;;;;;4969477;28;20379;-62
2022/03/02 05:44:27;;;;;;;32.05;11.02;;;;;;;;;;4969566;28;20437;-62
2022/03/02 05:46:53;;;;;;;38.45;12.35;;;;;;;;;;4969716;28;20421;-62
2022/03/02 05:49:18;;;;;;;29.17;11.32;;;;;;;;;;4969540;28;20449;-62
2022/03/02 05:51:44;;;;;;;27.48;11.23;;;;;;;;;;4969318;28;20376;-62
2022/03/02 05:54:10;;;;;;;29.88;11.40;;;;;;;;;;4971002;28;20388;-62
2022/03/02 05:56:39;;;;;;;24.70;10.45;;;;;;;;;;4969884;28;20432;-62
2022/03/02 05:59:06;;;;;;;32.53;12.52;;;;;;;;;;4969658;28;20322;-63
2022/03/02 06:01:32;;;;;;;27.60;10.98;;;;;;;;;;4969153;28;20052;-63
2022/03/02 06:03:58;;;;;;;28.10;11.18;;;;;;;;;;4969974;28;20437;-62
2022/03/02 06:06:23;;;;;;;26.73;11.05;;;;;;;;;;4969378;28;20460;-62
2022/03/02 06:08:50;;;;;;;30.95;11.23;;;;;;;;;;4968947;28;20441;-62
2022/03/02 06:11:15;;;;;;;24.23;11.23;;;;;;;;;;4971108;28;20060;-62
2022/03/02 06:13:41;;;;;;;30.17;11.18;;;;;;;;;;4972850;28;20029;-62
2022/03/02 06:16:07;;;;;;;29.23;11.82;;;;;;;;;;4973012;28;20130;-62
2022/03/02 06:18:32;;;;;;;26.35;10.77;;;;;;;;;;4972943;28;20415;-62
2022/03/02 06:21:00;;;;;;;27.30;11.70;;;;;;;;;;4955371;28;20488;-62
2022/03/02 06:23:27;;;;;;;34.90;11.52;;;;;;;;;;4974565;28;20111;-62
2022/03/02 06:25:52;;;;;;;27.48;11.20;;;;;;;;;;4973369;28;20033;-62
2022/03/02 06:28:17;;;;;;;34.70;11.20;;;;;;;;;;4972465;28;20437;-63
2022/03/02 06:30:43;;;;;;;31.75;11.63;;;;;;;;;;4972720;28;20391;-62
2022/03/02 06:33:09;;;;;;;28.27;11.63;;;;;;;;;;4955349;28;20407;-63
2022/03/02 06:35:34;;;;;;;33.97;11.32;;;;;;;;;;4954994;28;20425;-62
2022/03/02 06:38:00;;;;;;;30.25;11.13;;;;;;;;;;4972777;28;20336;-63
2022/03/02 06:40:25;;;;;;;35.40;11.77;;;;;;;;;;4971868;28;20405;-62
2022/03/02 06:43:03;;;;;;;36.40;13.27;;;;;;;;;;4972182;28;20322;-62
2022/03/02 06:45:35;;;;;;;31.35;11.02;;;;;;;;;;4973150;28;20437;-62
2022/03/02 06:48:20;;;;;;;33.58;12.10;;;;;;;;;;4972638;28;20361;-63
2022/03/02 06:50:53;;;;;;;45.13;14.32;;;;;;;;;;4972163;28;20468;-62
2022/03/02 06:53:25;;;;;;;36.08;14.18;;;;;;;;;;4971994;28;20332;-63
2022/03/02 06:55:51;;;;;;;43.38;14.80;;;;;;;;;;4954402;28;20365;-63
2022/03/02 06:58:20;;;;;;;40.80;14.90;;;;;;;;;;4954213;28;20496;-62
2022/03/02 07:00:51;;;;;;;37.70;16.05;;;;;;;;;;4954596;28;20391;-62
2022/03/02 07:03:18;;;;;;;42.45;15.10;;;;;;;;;;4972349;28;20353;-63
2022/03/02 07:05:46;;;;;;;39.63;15.00;;;;;;;;;;4971844;28;20056;-62
2022/03/02 07:08:11;;;;;;;45.85;16.52;;;;;;;;;;4971992;28;20371;-63
2022/03/02 07:10:36;;;;;;;37.97;14.20;;;;;;;;;;4972653;28;20049;-63
2022/03/02 07:13:04;;;;;;;34.70;13.95;;;;;;;;;;4973069;28;20503;-63
2022/03/02 07:15:31;;;;;;;39.70;15.45;;;;;;;;;;4971979;28;20417;-63
2022/03/02 07:17:59;;;;;;;37.50;15.05;;;;;;;;;;4971543;28;20445;-63
2022/03/02 07:20:26;;;;;;;40.13;16.00;;;;;;;;;;4972445;28;20326;-63
2022/03/02 07:22:52;;;;;;;40.08;16.92;;;;;;;;;;4971297;28;20407;-62
2022/03/02 07:25:27;;;;;;;40.80;15.70;;;;;;;;;;4972127;28;20110;-62
2022/03/02 07:27:55;;;;;;;37.20;15.07;;;;;;;;;;4971397;28;20452;-63
2022/03/02 07:30:20;;;;;;;41.85;16.25;;;;;;;;;;4971539;28;20384;-63
2022/03/02 07:32:46;;;;;;;44.30;17.25;;;;;;;;;;4971830;28;20388;-62
2022/03/02 07:35:13;;;;;;;43.97;16.60;;;;;;;;;;4971505;28;20353;-63
2022/03/02 07:37:39;;;;;;;46.13;17.65;;;;;;;;;;4972114;28;20348;-63
2022/03/02 07:40:06;;;;;;;45.40;16.70;;;;;;;;;;4971104;28;20484;-62
2022/03/02 07:42:33;;;;;;;39.67;14.75;;;;;;;;;;4971382;28;20376;-63
2022/03/02 07:44:58;;;;;;;45.42;17.50;;;;;;;;;;4972346;28;20787;-62
2022/03/02 07:47:24;;;;;;;42.47;17.05;;;;;;;;;;4971015;28;20463;-62
2022/03/02 07:49:50;;;;;;;49.03;16.77;;;;;;;;;;4971158;28;20025;-62
2022/03/02 07:52:16;;;;;;;46.72;17.17;;;;;;;;;;4971651;28;20048;-63
2022/03/02 07:54:43;;;;;;;42.08;16.02;;;;;;;;;;4971940;28;20412;-62
2022/03/02 07:57:10;;;;;;;44.85;16.92;;;;;;;;;;4972100;28;20096;-63
2022/03/02 07:59:39;;;;;;;37.50;14.82;;;;;;;;;;4971841;28;20025;-62
2022/03/02 08:02:06;;;;;;;40.63;14.70;;;;;;;;;;4971001;28;20356;-63
2022/03/02 08:04:32;;;;;;;43.28;15.80;;;;;;;;;;4971001;28;20383;-62
2022/03/02 08:06:58;;;;;;;37.15;13.68;;;;;;;;;;4953114;28;20033;-63
2022/03/02 08:09:23;;;;;;;39.42;14.50;;;;;;;;;;4971157;28;20405;-63
2022/03/02 08:11:49;;;;;;;38.70;14.40;;;;;;;;;;4970837;28;20183;-63
2022/03/02 08:14:18;;;;;;;35.83;14.02;;;;;;;;;;4970933;28;20447;-63
2022/03/02 08:16:45;;;;;;;39.85;15.23;;;;;;;;;;4970620;28;20433;-62
2022/03/02 08:19:11;;;;;;;39.17;15.65;;;;;;;;;;4970582;28;20463;-64
2022/03/02 08:21:38;;;;;;;33.55;13.23;;;;;;;;;;4970824;28;20455;-64
2022/03/02 08:24:05;;;;;;;34.13;13.63;;;;;;;;;;4971737;28;20476;-63
2022/03/02 08:26:33;;;;;;;38.03;14.48;;;;;;;;;;4970441;28;20435;-62
2022/03/02 08:29:03;;;;;;;41.03;14.80;;;;;;;;;;4970015;28;20461;-62
2022/03/02 08:31:29;;;;;;;30.00;11.50;;;;;;;;;;4971726;28;20439;-64
2022/03/02 08:33:55;;;;;;;35.45;13.88;;;;;;;;;;4953087;28;20420;-63
2022/03/02 08:36:21;;;;;;;34.65;13.95;;;;;;;;;;4970788;28;20315;-62
2022/03/02 08:38:49;;;;;;;38.90;13.73;;;;;;;;;;4953245;28;20119;-63
2022/03/02 08:41:16;;;;;;;36.95;13.55;;;;;;;;;;4969580;28;20539;-63
2022/03/02 08:43:44;;;;;;;39.03;13.45;;;;;;;;;;4952307;28;20065;-63
2022/03/02 08:46:09;;;;;;;34.92;12.98;;;;;;;;;;4970578;28;20353;-63
2022/03/02 08:48:35;;;;;;;38.05;12.60;;;;;;;;;;4970163;28;20412;-63
2022/03/02 08:51:01;;;;;;;32.13;12.25;;;;;;;;;;4969853;28;20048;-64
2022/03/02 08:53:26;;;;;;;38.05;14.27;;;;;;;;;;4969987;28;20107;-62
2022/03/02 08:55:53;;;;;;;34.13;13.45;;;;;;;;;;4971546;28;20099;-63
2022/03/02 08:58:19;;;;;;;35.95;13.40;;;;;;;;;;4970035;28;20492;-64
2022/03/02 09:00:44;;;;;;;34.95;13.05;;;;;;;;;;4971216;28;20567;-63
2022/03/02 09:03:14;;;;;;;35.88;13.00;;;;;;;;;;4970290;28;20345;-63
2022/03/02 09:05:40;;;;;;;35.72;13.07;;;;;;;;;;4970181;28;20057;-63
2022/03/02 09:08:06;;;;;;;32.83;12.43;;;;;;;;;;4969613;28;20030;-64
2022/03/02 09:10:32;;;;;;;34.47;12.40;;;;;;;;;;4969917;28;20353;-63
2022/03/02 09:12:59;;;;;;;32.33;12.38;;;;;;;;;;4969526;28;20044;-63
2022/03/02 09:15:26;;;;;;;30.90;12.07;;;;;;;;;;4970184;28;20310;-63
2022/03/02 09:17:52;;;;;;;28.85;11.95;;;;;;;;;;4969627;28;20444;-63
2022/03/02 09:20:17;;;;;;;30.70;11.65;;;;;;;;;;4971007;28;20500;-62
2022/03/02 09:22:43;;;;;;;34.63;12.45;;;;;;;;;;4969543;28;20491;-63
2022/03/02 09:25:09;;;;;;;32.65;11.68;;;;;;;;;;4969531;28;20344;-63
2022/03/02 09:27:35;;;;;;;28.88;11.73;;;;;;;;;;4970326;28;20369;-63
2022/03/02 09:30:03;;;;;;;30.80;10.70;;;;;;;;;;4968044;28;20405;-63
2022/03/02 09:32:31;;;;;;;33.13;12.18;;;;;;;;;;4971481;28;20337;-64
2022/03/02 09:34:57;;;;;;;26.85;10.20;;;;;;;;;;4969314;28;20022;-63
2022/03/02 09:37:24;;;;;;;34.30;12.85;;;;;;;;;;4969449;28;20083;-63
2022/03/02 09:39:50;;;;;;;30.63;10.57;;;;;;;;;;4970427;28;20326;-63
2022/03/02 09:42:22;;;;;;;30.55;11.88;;;;;;;;;;4969654;28;20372;-63
2022/03/02 09:44:53;;;;;;;28.58;10.93;;;;;;;;;;4953815;28;20559;-63
2022/03/02 09:47:21;;;;;;;33.92;11.10;;;;;;;;;;4958878;28;20421;-63
2022/03/02 09:49:50;;;;;;;28.50;10.82;;;;;;;;;;4975887;28;20372;-66
2022/03/02 09:52:20;;;;;;;24.50;9.85;;;;;;;;;;4976244;28;20374;-63
2022/03/02 09:54:52;;;;;;;33.53;9.68;;;;;;;;;;4976020;28;20103;-63
2022/03/02 09:57:19;;;;;;;33.05;10.60;;;;;;;;;;4975809;28;20440;-66
2022/03/02 09:59:49;;;;;;;26.05;10.20;;;;;;;;;;4976804;28;20424;-62
2022/03/02 10:02:40;;;;;;;32.38;10.25;;;;;;;;;;4975661;28;20372;-63
2022/03/02 10:05:09;;;;;;;28.90;10.15;;;;;;;;;;4975171;28;20112;-64
2022/03/02 10:07:40;;;;;;;23.13;9.93;;;;;;;;;;4976895;28;20468;-63
2022/03/02 10:10:12;;;;;;;24.73;9.82;;;;;;;;;;4976033;28;20352;-63
2022/03/02 10:12:38;;;;;;;27.52;9.55;;;;;;;;;;4975668;28;20425;-64
2022/03/02 10:15:06;;;;;;;24.45;9.52;;;;;;;;;;4975706;28;20531;-63
2022/03/02 10:17:39;;;;;;;23.03;7.97;;;;;;;;;;4976908;28;20336;-63
2022/03/02 10:20:28;;;;;;;29.38;10.00;;;;;;;;;;4975358;28;20376;-63
2022/03/02 10:22:54;;;;;;;;;;;;;;;;;;4976378;28;20376;-63
2022/03/02 10:25:27;;;;;;;27.05;9.23;;;;;;;;;;4976046;28;20276;-63
2022/03/02 10:28:02;;;;;;;23.48;8.85;;;;;;;;;;4957581;28;20084;-63
2022/03/02 10:30:32;;;;;;;21.38;8.73;;;;;;;;;;4975630;28;20368;-63
2022/03/02 10:33:09;;;;;;;25.23;9.95;;;;;;;;;;4975409;28;20392;-64
2022/03/02 10:35:38;;;;;;;21.85;8.55;;;;;;;;;;4957978;28;20340;-63
2022/03/02 10:38:04;;;;;;;21.95;7.95;;;;;;;;;;4975433;28;20372;-63
2022/03/02 10:40:32;;;;;;;18.88;7.82;;;;;;;;;;4974897;28;20373;-63
2022/03/02 10:43:04;;;;;;;21.15;8.98;;;;;;;;;;4975232;28;20371;-63
2022/03/02 10:45:36;;;;;;;22.50;8.45;;;;;;;;;;4957711;28;20448;-63
2022/03/02 10:48:36;;;;;;;16.65;7.10;;;;;;;;;;4958594;28;20447;-63
2022/03/02 10:51:03;;;;;;;20.17;7.75;;;;;;;;;;4961512;28;20440;-63
2022/03/02 10:53:30;;;;;;;24.75;8.23;;;;;;;;;;4957700;28;20490;-63
2022/03/02 10:55:57;;;;;;;22.30;8.35;;;;;;;;;;4956711;28;20425;-63
2022/03/02 10:58:26;;;;;;;16.17;6.88;;;;;;;;;;4971906;28;20091;-64
2022/03/02 11:00:52;;;;;;;;;;;;;;;;;;4972754;28;20437;-63
2022/03/02 11:03:19;;;;;;;19.33;8.18;;;;;;;;;;4973863;28;20351;-63
2022/03/02 11:05:44;;;;;;;17.02;7.43;;;;;;;;;;4973272;28;20492;-63
2022/03/02 11:08:10;;;;;;;16.52;7.28;;;;;;;;;;4971414;28;20555;-63
2022/03/02 11:10:40;;;;;;;18.73;7.97;;;;;;;;;;4971971;28;20336;-64
2022/03/02 11:13:15;;;;;;;19.05;7.78;;;;;;;;;;4971490;28;20417;-63
2022/03/02 11:15:54;;;;;;;18.60;6.63;;;;;;;;;;4971994;28;20396;-63
2022/03/02 11:18:38;;;;;;;20.48;7.72;;;;;;;;;;4971765;28;20448;-62
2022/03/02 11:21:04;;;;;;;19.63;7.80;;;;;;;;;;4971631;28;20433;-63
2022/03/02 11:23:54;;;;;;;20.00;7.55;;;;;;;;;;4972681;28;20030;-63
2022/03/02 11:26:25;;;;;;;16.67;7.22;;;;;;;;;;4961591;28;20364;-63
2022/03/02 11:28:56;;;;;;;19.90;7.10;;;;;;;;;;4972251;28;20412;-63
2022/03/02 11:31:30;;;;;;;19.10;8.07;;;;;;;;;;4972638;28;20431;-63
2022/03/02 11:34:14;;;;;;;22.95;7.97;;;;;;;;;;4972242;28;20379;-63
2022/03/02 11:36:42;;;;;;;18.58;6.70;;;;;;;;;;4971757;28;20496;-64
2022/03/02 11:39:08;;;;;;;16.73;7.80;;;;;;;;;;4971420;28;20547;-62
2022/03/02 11:41:35;;;;;;;20.02;7.47;;;;;;;;;;4971761;28;20391;-63
2022/03/02 11:44:06;;;;;;;17.48;6.85;;;;;;;;;;4970958;28;20444;-63
2022/03/02 11:46:32;;;;;;;18.85;8.10;;;;;;;;;;4953366;28;20140;-62
2022/03/02 11:48:58;;;;;;;12.40;5.80;;;;;;;;;;4972521;28;20433;-63
2022/03/02 11:51:25;;;;;;;16.90;7.03;;;;;;;;;;4971553;28;20064;-63
2022/03/02 11:53:53;;;;;;;18.13;6.55;;;;;;;;;;4971339;28;20030;-63
2022/03/02 11:56:23;;;;;;;15.10;6.75;;;;;;;;;;4971485;28;20329;-63
2022/03/02 11:59:06;;;;;;;18.58;6.47;;;;;;;;;;4971377;28;20450;-63
2022/03/02 12:01:43;;;;;;;14.23;6.57;;;;;;;;;;4971313;28;20372;-63
2022/03/02 12:04:08;;;;;;;18.55;7.90;;;;;;;;;;4971942;28;20313;-63
2022/03/02 12:06:40;;;;;;;15.82;6.70;;;;;;;;;;4970879;28;20337;-63
2022/03/02 12:09:06;;;;;;;17.35;6.78;;;;;;;;;;4969410;28;20411;-63
2022/03/02 12:11:36;;;;;;;16.98;6.38;;;;;;;;;;4971085;28;20345;-63
2022/03/02 12:14:09;;;;;;;15.50;6.13;;;;;;;;;;4970818;28;20451;-63
2022/03/02 12:16:51;;;;;;;15.73;6.00;;;;;;;;;;4971454;28;20381;-63
2022/03/02 12:19:21;;;;;;;13.38;6.53;;;;;;;;;;4970773;28;20383;-64
2022/03/02 12:21:47;;;;;;;17.30;6.57;;;;;;;;;;4953063;28;20503;-63
2022/03/02 12:24:18;;;;;;;16.20;6.35;;;;;;;;;;4970561;28;20419;-63
2022/03/02 12:26:48;;;;;;;17.48;6.00;;;;;;;;;;4970482;28;20508;-63
2022/03/02 12:29:14;;;;;;;14.88;6.68;;;;;;;;;;4970593;28;20349;-64
2022/03/02 12:31:41;;;;;;;16.67;6.50;;;;;;;;;;4952640;28;20336;-63
2022/03/02 12:34:16;;;;;;;11.95;5.78;;;;;;;;;;4970667;28;20436;-63
2022/03/02 12:36:42;;;;;;;13.57;5.07;;;;;;;;;;4970317;28;20087;-64
2022/03/02 12:39:08;;;;;;;15.15;6.15;;;;;;;;;;4970067;28;20396;-63
2022/03/02 12:41:35;;;;;;;10.93;5.65;;;;;;;;;;4970340;28;20380;-64
2022/03/02 12:44:01;;;;;;;11.10;5.47;;;;;;;;;;4970026;28;20099;-63
2022/03/02 12:46:27;;;;;;;20.95;7.00;;;;;;;;;;4969656;28;20025;-63
2022/03/02 12:48:55;;;;;;;17.45;6.18;;;;;;;;;;4970190;28;20029;-63
2022/03/02 12:51:21;;;;;;;14.00;5.28;;;;;;;;;;4970759;28;20340;-63
2022/03/02 12:53:47;;;;;;;15.30;5.57;;;;;;;;;;4968538;28;20389;-63
2022/03/02 12:56:13;;;;;;;13.90;5.22;;;;;;;;;;4969149;28;20336;-64
2022/03/02 12:58:38;;;;;;;12.55;5.75;;;;;;;;;;4971059;28;20359;-62
2022/03/02 13:01:03;;;;;;;12.98;5.07;;;;;;;;;;4969819;28;20349;-62
2022/03/02 13:03:30;;;;;;;13.88;5.82;;;;;;;;;;4969821;28;20064;-63
2022/03/02 13:05:59;;;;;;;10.07;4.90;;;;;;;;;;4968573;28;20048;-63
2022/03/02 13:08:43;;;;;;;13.57;4.47;;;;;;;;;;4970128;28;20048;-63
2022/03/02 13:11:30;;;;;;;12.45;5.18;;;;;;;;;;4967709;28;20322;-63
2022/03/02 13:13:56;;;;;;;14.38;5.68;;;;;;;;;;4970819;28;20061;-63
2022/03/02 13:16:23;;;;;;;14.48;5.65;;;;;;;;;;4969766;28;20168;-63
2022/03/02 13:18:50;;;;;;;13.80;5.20;;;;;;;;;;4970065;28;20033;-63
2022/03/02 13:21:21;;;;;;;13.65;5.35;;;;;;;;;;4969547;28;20432;-63
2022/03/02 13:24:04;;;;;;;14.02;5.70;;;;;;;;;;4969872;28;20033;-63
2022/03/02 13:26:29;;;;;;;11.60;4.78;;;;;;;;;;4969683;28;20514;-63
2022/03/02 13:29:06;;;;;;;12.88;5.00;;;;;;;;;;4970415;28;20507;-62
2022/03/02 13:31:52;;;;;;;12.90;5.45;;;;;;;;;;4969738;28;20324;-63
2022/03/02 13:34:19;;;;;;;12.60;5.50;;;;;;;;;;4969050;28;20034;-63
2022/03/02 13:36:55;;;;;;;12.60;5.22;;;;;;;;;;4969418;28;20055;-63
2022/03/02 13:39:30;;;;;;;11.98;5.10;;;;;;;;;;4969500;28;20437;-63
2022/03/02 13:41:56;;;;;;;12.30;4.85;;;;;;;;;;4969239;28;20150;-63
2022/03/02 13:44:44;;;;;;;11.00;5.13;;;;;;;;;;4969262;28;20483;-62
2022/03/02 13:47:11;;;;;;;15.32;5.70;;;;;;;;;;4969435;28;20617;-63
2022/03/02 13:49:45;;;;;;;14.80;5.80;;;;;;;;;;4970543;28;20104;-64
2022/03/02 13:52:17;;;;;;;12.75;5.47;;;;;;;;;;4970077;28;20491;-63
2022/03/02 13:54:42;;;;;;;13.77;4.90;;;;;;;;;;4969426;28;20441;-62
2022/03/02 13:57:22;;;;;;;10.43;4.80;;;;;;;;;;4969389;28;20510;-63
2022/03/02 13:59:48;;;;;;;11.02;4.57;;;;;;;;;;4969231;28;20057;-62
2022/03/02 14:02:14;;;;;;;11.68;5.13;;;;;;;;;;4969572;28;20383;-63
2022/03/02 14:04:46;;;;;;;11.52;5.05;;;;;;;;;;4969017;28;20480;-63
2022/03/02 14:07:13;;;;;;;12.38;3.83;;;;;;;;;;4969152;28;20325;-63
2022/03/02 14:09:39;;;;;;;13.40;4.70;;;;;;;;;;4969487;28;20356;-63
2022/03/02 14:12:06;;;;;;;9.02;4.15;;;;;;;;;;4968950;28;20412;-63
2022/03/02 14:14:32;;;;;;;11.05;4.60;;;;;;;;;;4969147;28;20037;-63
2022/03/02 14:17:11;;;;;;;11.07;4.75;;;;;;;;;;4970493;28;20431;-63
2022/03/02 14:19:39;;;;;;;9.30;4.38;;;;;;;;;;4968940;28;20599;-62
2022/03/02 14:22:07;;;;;;;10.82;4.38;;;;;;;;;;4968854;28;20622;-62
2022/03/02 14:24:35;;;;;;;9.80;4.82;;;;;;;;;;4951566;28;20365;-63